createdAt,value
2023-05-23T00:01:59.291Z,8.70
2023-05-23T00:04:27.430Z,8.93
2023-05-23T00:06:54.517Z,7.80
2023-05-23T00:09:21.478Z,8.52
2023-05-23T00:11:48.255Z,7.90
2023-05-23T00:14:15.768Z,8.50
2023-05-23T00:16:44.418Z,8.65
2023-05-23T00:19:11.780Z,8.65
2023-05-23T00:21:38.598Z,8.88
2023-05-23T00:24:05.353Z,9.90
2023-05-23T00:26:32.584Z,8.85
2023-05-23T00:28:59.420Z,8.93
2023-05-23T00:31:26.311Z,8.75
2023-05-23T00:33:53.179Z,8.65
2023-05-23T00:36:19.994Z,9.55
2023-05-23T00:38:46.684Z,8.65
2023-05-23T00:41:13.466Z,9.35
2023-05-23T00:43:40.166Z,9.15
2023-05-23T00:46:07.186Z,8.57
2023-05-23T00:48:34.020Z,9.82
2023-05-23T00:51:00.928Z,8.82
2023-05-23T00:53:27.728Z,8.93
2023-05-23T00:55:54.436Z,9.43
2023-05-23T00:58:21.197Z,8.48
2023-05-23T01:00:50.662Z,9.02
2023-05-23T01:03:18.591Z,9.35
2023-05-23T01:05:45.929Z,9.40
2023-05-23T01:08:12.775Z,9.48
2023-05-23T01:10:39.524Z,8.70
2023-05-23T01:13:15.216Z,9.48
2023-05-23T01:16:01.114Z,9.25
2023-05-23T01:18:38.574Z,8.30
2023-05-23T01:21:17.880Z,8.93
2023-05-23T01:23:52.610Z,8.25
2023-05-23T01:26:20.041Z,9.02
2023-05-23T01:28:48.830Z,8.75
2023-05-23T01:31:16.966Z,8.82
2023-05-23T01:33:44.195Z,9.10
2023-05-23T01:36:13.624Z,9.15
2023-05-23T01:38:40.368Z,8.73
2023-05-23T01:41:07.157Z,8.50
2023-05-23T01:43:34.173Z,8.90
2023-05-23T01:46:01.074Z,7.88
2023-05-23T01:48:28.590Z,8.95
2023-05-23T01:50:56.885Z,8.55
2023-05-23T01:53:24.065Z,8.10
2023-05-23T01:55:51.708Z,7.55
2023-05-23T01:58:18.556Z,8.25
2023-05-23T02:00:45.418Z,8.10
2023-05-23T02:03:12.340Z,7.80
2023-05-23T02:05:39.496Z,8.18
2023-05-23T02:08:06.511Z,8.70
2023-05-23T02:10:33.230Z,8.77
2023-05-23T02:12:59.963Z,8.38
2023-05-23T02:15:26.726Z,8.23
2023-05-23T02:17:53.557Z,8.27
2023-05-23T02:20:20.526Z,9.52
2023-05-23T02:22:47.281Z,8.23
2023-05-23T02:25:14.311Z,8.30
2023-05-23T02:27:41.068Z,8.80
2023-05-23T02:30:08.265Z,9.20
2023-05-23T02:32:35.313Z,8.27
2023-05-23T02:35:02.509Z,8.38
2023-05-23T02:37:29.268Z,8.63
2023-05-23T02:39:56.595Z,8.43
2023-05-23T02:42:23.360Z,9.30
2023-05-23T02:44:50.181Z,9.73
2023-05-23T02:47:16.920Z,8.65
2023-05-23T02:49:43.620Z,9.57
2023-05-23T02:52:10.340Z,8.20
2023-05-23T02:54:37.054Z,9.93
2023-05-23T02:57:04.599Z,9.10
2023-05-23T02:59:31.631Z,9.38
2023-05-23T03:01:58.413Z,9.63
2023-05-23T03:04:25.354Z,8.43
2023-05-23T03:06:54.604Z,8.90
2023-05-23T03:09:21.888Z,8.80
2023-05-23T03:11:48.819Z,8.52
2023-05-23T03:14:15.613Z,8.18
2023-05-23T03:16:42.690Z,9.35
2023-05-23T03:19:09.704Z,9.30
2023-05-23T03:21:36.762Z,8.50
2023-05-23T03:24:03.737Z,9.13
2023-05-23T03:26:31.140Z,8.95
2023-05-23T03:28:57.981Z,10.10
2023-05-23T03:31:24.789Z,9.73
2023-05-23T03:33:51.792Z,8.75
2023-05-23T03:36:18.676Z,9.13
2023-05-23T03:38:45.461Z,9.57
2023-05-23T03:41:12.339Z,8.93
2023-05-23T03:43:39.184Z,9.05
2023-05-23T03:46:05.974Z,8.90
2023-05-23T03:48:32.748Z,9.52
2023-05-23T03:50:59.477Z,9.38
2023-05-23T03:53:26.358Z,8.88
2023-05-23T03:55:54.357Z,7.95
2023-05-23T03:58:21.275Z,8.70
2023-05-23T04:00:48.113Z,8.35
2023-05-23T04:03:15.830Z,8.02
2023-05-23T04:05:43.217Z,7.85
2023-05-23T04:08:10.349Z,7.28
2023-05-23T04:10:37.298Z,7.15
2023-05-23T04:13:04.167Z,6.90
2023-05-23T04:15:30.894Z,6.57
2023-05-23T04:17:58.250Z,5.95
2023-05-23T04:20:25.183Z,7.18
2023-05-23T04:22:52.000Z,6.00
2023-05-23T04:25:20.645Z,5.87
2023-05-23T04:27:47.653Z,6.03
2023-05-23T04:30:14.504Z,5.32
2023-05-23T04:32:41.264Z,5.15
2023-05-23T04:35:08.324Z,5.20
2023-05-23T04:37:35.431Z,5.55
2023-05-23T04:40:02.192Z,5.55
2023-05-23T04:42:29.730Z,5.03
2023-05-23T04:44:59.165Z,5.30
2023-05-23T04:47:28.369Z,4.95
2023-05-23T04:49:55.897Z,5.20
2023-05-23T04:52:22.733Z,5.13
2023-05-23T04:54:49.937Z,5.28
2023-05-23T04:57:17.431Z,5.03
2023-05-23T04:59:44.267Z,5.82
2023-05-23T05:02:11.373Z,4.80
2023-05-23T05:04:38.091Z,4.97
2023-05-23T05:07:05.361Z,5.22
2023-05-23T05:09:32.246Z,5.80
2023-05-23T05:11:59.578Z,5.60
2023-05-23T05:14:27.166Z,5.40
2023-05-23T05:16:55.126Z,5.72
2023-05-23T05:19:22.209Z,5.57
2023-05-23T05:21:49.009Z,5.30
2023-05-23T05:24:15.945Z,6.28
2023-05-23T05:26:43.019Z,5.32
2023-05-23T05:29:09.722Z,5.13
2023-05-23T05:31:38.142Z,5.70
2023-05-23T05:34:05.056Z,5.35
2023-05-23T05:36:32.731Z,6.43
2023-05-23T05:38:59.646Z,5.88
2023-05-23T05:41:27.099Z,5.78
2023-05-23T05:43:53.909Z,6.95
2023-05-23T05:46:20.849Z,6.03
2023-05-23T05:48:47.770Z,5.85
2023-05-23T05:51:14.533Z,6.30
2023-05-23T05:53:41.258Z,5.50
2023-05-23T05:56:09.547Z,5.43
2023-05-23T05:58:36.469Z,6.07
2023-05-23T06:01:03.873Z,5.40
2023-05-23T06:03:30.901Z,7.20
2023-05-23T06:05:57.773Z,5.57
2023-05-23T06:08:24.623Z,5.93
2023-05-23T06:10:51.324Z,5.82
2023-05-23T06:13:18.327Z,5.22
2023-05-23T06:15:45.416Z,6.43
2023-05-23T06:18:12.192Z,4.82
2023-05-23T06:20:39.178Z,7.88
2023-05-23T06:23:06.186Z,5.35
2023-05-23T06:25:33.060Z,5.55
2023-05-23T06:27:59.858Z,5.05
2023-05-23T06:30:26.684Z,6.65
2023-05-23T06:32:53.489Z,6.30
2023-05-23T06:35:20.262Z,5.90
2023-05-23T06:37:46.982Z,5.63
2023-05-23T06:40:16.651Z,5.25
2023-05-23T06:42:43.431Z,6.13
2023-05-23T06:45:10.503Z,5.30
2023-05-23T06:47:37.439Z,5.60
2023-05-23T06:50:04.535Z,6.07
2023-05-23T06:52:31.418Z,5.03
2023-05-23T06:54:58.231Z,5.60
2023-05-23T06:57:25.080Z,4.95
2023-05-23T06:59:51.764Z,5.07
2023-05-23T07:02:18.560Z,6.63
2023-05-23T07:04:45.329Z,5.10
2023-05-23T07:07:12.143Z,5.72
2023-05-23T07:09:39.794Z,5.45
2023-05-23T07:12:06.975Z,5.40
2023-05-23T07:14:35.904Z,5.05
2023-05-23T07:17:02.765Z,4.97
2023-05-23T07:19:29.717Z,4.25
2023-05-23T07:21:56.589Z,6.13
2023-05-23T07:24:25.155Z,5.05
2023-05-23T07:26:52.166Z,5.07
2023-05-23T07:29:18.985Z,4.60
2023-05-23T07:31:45.828Z,4.95
2023-05-23T07:34:12.606Z,5.45
2023-05-23T07:36:41.185Z,4.43
2023-05-23T07:39:08.384Z,4.57
2023-05-23T07:41:35.178Z,5.45
2023-05-23T07:44:01.970Z,5.13
2023-05-23T07:46:28.942Z,4.97
2023-05-23T07:48:57.262Z,4.60
2023-05-23T07:51:24.340Z,4.43
2023-05-23T07:53:51.219Z,5.15
2023-05-23T07:56:18.694Z,5.47
2023-05-23T07:58:45.587Z,5.25
2023-05-23T08:01:12.337Z,5.38
2023-05-23T08:03:39.094Z,5.20
2023-05-23T08:06:07.820Z,5.10
2023-05-23T08:08:34.670Z,5.38
2023-05-23T08:11:01.584Z,5.60
2023-05-23T08:13:28.785Z,4.80
2023-05-23T08:15:55.984Z,4.90
2023-05-23T08:18:22.928Z,4.35
2023-05-23T08:20:49.809Z,4.20
2023-05-23T08:23:18.245Z,4.25
2023-05-23T08:25:45.124Z,4.28
2023-05-23T08:28:11.967Z,5.00
2023-05-23T08:30:38.956Z,4.32
2023-05-23T08:33:07.435Z,4.28
2023-05-23T08:35:36.099Z,4.60
2023-05-23T08:38:03.689Z,4.50
2023-05-23T08:40:31.369Z,4.13
2023-05-23T08:42:58.481Z,4.63
2023-05-23T08:45:25.379Z,4.57
2023-05-23T08:47:52.779Z,4.30
2023-05-23T08:50:22.598Z,33.78
2023-05-23T08:52:49.923Z,27.63
2023-05-23T08:55:18.032Z,54.95
2023-05-23T08:57:45.863Z,38.72
2023-05-23T09:00:15.333Z,34.70
2023-05-23T09:02:45.405Z,6.72
2023-05-23T09:05:12.800Z,11.32
2023-05-23T09:07:40.145Z,4.50
2023-05-23T09:10:08.180Z,10.00
2023-05-23T09:12:37.254Z,7.80
2023-05-23T09:29:44.146Z,5.28
2023-05-23T09:32:14.669Z,6.95
2023-05-23T09:37:08.717Z,8.38
2023-05-23T09:39:38.870Z,4.60
2023-05-23T09:42:06.234Z,6.57
2023-05-23T09:49:26.829Z,4.88
2023-05-23T09:52:00.390Z,5.97
2023-05-23T09:54:27.258Z,4.82
2023-05-23T10:38:41.513Z,4.63
2023-05-23T10:41:18.965Z,4.43
2023-05-23T10:44:06.172Z,4.53
2023-05-23T10:46:52.798Z,4.57
2023-05-23T10:49:19.970Z,5.20
2023-05-23T10:51:51.460Z,4.65
2023-05-23T10:54:21.476Z,3.92
2023-05-23T10:57:03.291Z,4.53
2023-05-23T10:59:30.339Z,4.93
2023-05-23T11:01:57.144Z,4.15
2023-05-23T11:04:30.505Z,4.00
2023-05-23T11:09:24.444Z,4.18
2023-05-23T11:11:53.754Z,3.92
2023-05-23T11:14:40.871Z,3.70
2023-05-23T11:17:13.663Z,4.43
2023-05-23T11:19:40.823Z,4.25
2023-05-23T11:22:10.904Z,4.13
2023-05-23T11:24:53.287Z,3.83
2023-05-23T11:27:40.519Z,3.67
2023-05-23T11:30:10.386Z,4.13
2023-05-23T11:32:37.903Z,3.35
2023-05-23T11:35:06.355Z,4.20
2023-05-23T11:37:33.424Z,4.15
2023-05-23T11:40:00.333Z,4.30
2023-05-23T11:42:27.149Z,3.90
2023-05-23T11:44:54.109Z,3.53
2023-05-23T11:47:21.696Z,3.80
2023-05-23T11:49:48.690Z,3.50
2023-05-23T11:52:15.841Z,3.70
2023-05-23T11:54:43.820Z,3.53
2023-05-23T11:57:11.329Z,4.40
2023-05-23T11:59:38.419Z,3.97
2023-05-23T12:02:06.970Z,4.10
2023-05-23T12:04:35.998Z,3.90
2023-05-23T12:07:05.288Z,4.65
2023-05-23T12:09:32.115Z,3.75
2023-05-23T12:11:58.950Z,4.20
2023-05-23T12:14:29.069Z,3.85
2023-05-23T12:16:55.914Z,4.70
2023-05-23T12:19:22.811Z,3.72
2023-05-23T12:21:49.967Z,4.20
2023-05-23T12:24:18.002Z,4.47
2023-05-23T12:26:52.223Z,4.20
2023-05-23T12:29:19.548Z,4.93
2023-05-23T12:31:48.671Z,4.85
2023-05-23T12:34:15.775Z,4.38
2023-05-23T12:36:48.990Z,4.70
2023-05-23T12:39:16.365Z,3.97
2023-05-23T12:41:44.448Z,4.50
2023-05-23T12:44:11.749Z,4.60
2023-05-23T12:46:38.680Z,4.97
2023-05-23T12:49:05.492Z,4.50
2023-05-23T12:51:32.268Z,4.88
2023-05-23T12:53:59.356Z,5.05
2023-05-23T12:56:27.040Z,4.88
2023-05-23T12:58:56.649Z,4.93
2023-05-23T13:01:25.325Z,3.75
2023-05-23T13:03:52.189Z,4.95
2023-05-23T13:06:19.204Z,4.53
2023-05-23T13:08:45.924Z,4.38
2023-05-23T13:11:12.889Z,4.60
2023-05-23T13:13:39.819Z,4.60
2023-05-23T13:16:07.190Z,4.85
2023-05-23T13:18:34.061Z,4.57
2023-05-23T13:21:00.956Z,4.95
2023-05-23T13:23:27.761Z,4.22
2023-05-23T13:25:54.579Z,4.38
2023-05-23T13:28:21.416Z,4.50
2023-05-23T13:30:48.531Z,4.28
2023-05-23T13:33:15.763Z,4.07
2023-05-23T13:35:43.056Z,4.47
2023-05-23T13:38:10.445Z,4.55
2023-05-23T13:40:37.266Z,4.30
2023-05-23T13:43:04.005Z,4.50
2023-05-23T13:45:31.321Z,4.43
2023-05-23T13:47:58.150Z,3.88
2023-05-23T13:50:24.990Z,4.05
2023-05-23T17:04:09.358Z,3.72
2023-05-23T17:06:37.418Z,4.18
2023-05-23T17:09:04.155Z,4.07
2023-05-23T17:11:30.923Z,3.90
2023-05-23T17:13:57.617Z,4.25
2023-05-23T17:16:24.426Z,3.88
2023-05-23T17:18:51.252Z,4.60
2023-05-23T17:21:18.077Z,4.45
2023-05-23T17:23:45.063Z,4.72
2023-05-23T17:26:11.802Z,4.72
2023-05-23T17:28:38.670Z,4.70
2023-05-23T17:31:05.754Z,4.88
2023-05-23T17:33:32.511Z,5.15
2023-05-23T17:35:59.321Z,5.38
2023-05-23T17:38:27.368Z,5.13
2023-05-23T17:40:54.314Z,5.03
2023-05-23T17:43:21.162Z,5.20
2023-05-23T17:45:48.023Z,5.03
2023-05-23T17:48:17.761Z,5.65
2023-05-23T17:50:44.964Z,5.13
2023-05-23T17:53:11.709Z,5.68
2023-05-23T17:55:38.515Z,4.80
2023-05-23T17:58:05.302Z,5.40
2023-05-23T18:00:32.109Z,5.60
2023-05-23T18:02:59.135Z,6.40
2023-05-23T18:05:25.928Z,7.43
2023-05-23T18:07:52.993Z,6.30
2023-05-23T18:10:19.862Z,8.00
2023-05-23T18:12:46.716Z,5.78
2023-05-23T18:15:13.578Z,5.47
2023-05-23T18:17:40.691Z,4.97
2023-05-23T18:20:08.001Z,4.88
2023-05-23T18:22:34.929Z,4.75
2023-05-23T18:25:01.780Z,4.88
2023-05-23T18:27:28.537Z,5.07
2023-05-23T18:29:55.322Z,5.15
2023-05-23T18:32:22.135Z,4.32
2023-05-23T18:34:49.109Z,4.38
2023-05-23T18:37:16.093Z,5.00
2023-05-23T18:39:42.992Z,4.28
2023-05-23T18:42:09.782Z,4.93
2023-05-23T18:44:36.649Z,4.47
2023-05-23T18:47:03.458Z,3.92
2023-05-23T18:49:30.165Z,3.83
2023-05-23T18:51:57.093Z,4.18
2023-05-23T18:54:23.792Z,4.35
2023-05-23T18:56:50.699Z,3.83
2023-05-23T18:59:17.855Z,3.72
2023-05-23T19:01:44.801Z,4.25
2023-05-23T19:04:11.773Z,4.40
2023-05-23T19:06:38.693Z,4.50
2023-05-23T19:09:09.684Z,4.10
2023-05-23T19:11:37.449Z,4.22
2023-05-23T19:14:04.354Z,4.53
2023-05-23T19:16:31.563Z,4.28
2023-05-23T19:18:58.370Z,4.47
2023-05-23T19:21:25.270Z,4.20
2023-05-23T19:23:52.605Z,4.68
2023-05-23T19:26:20.476Z,5.15
2023-05-23T19:28:47.500Z,4.18
2023-05-23T19:31:14.335Z,4.60
2023-05-23T19:33:41.043Z,4.72
2023-05-23T19:36:07.795Z,5.40
2023-05-23T19:38:34.560Z,4.57
2023-05-23T19:41:01.330Z,4.80
2023-05-23T19:43:28.031Z,5.00
2023-05-23T19:45:54.781Z,4.57
2023-05-23T19:48:21.560Z,4.75
2023-05-23T19:50:48.323Z,5.00
2023-05-23T19:53:15.161Z,5.10
2023-05-23T19:55:42.906Z,4.90
2023-05-23T19:58:09.705Z,4.35
2023-05-23T20:00:36.483Z,4.90
2023-05-23T20:03:03.826Z,5.53
2023-05-23T20:05:30.810Z,5.30
2023-05-23T20:07:57.619Z,5.18
2023-05-23T20:10:25.574Z,5.68
2023-05-23T20:12:52.370Z,5.10
2023-05-23T20:15:31.355Z,4.75
2023-05-23T20:18:05.515Z,4.78
2023-05-23T20:20:32.316Z,5.47
2023-05-23T20:22:59.151Z,5.60
2023-05-23T20:25:28.691Z,5.10
2023-05-23T20:27:56.937Z,5.05
2023-05-23T20:30:23.735Z,4.47
2023-05-23T20:32:53.737Z,5.32
2023-05-23T20:35:23.586Z,5.28
2023-05-23T20:37:53.897Z,5.07
2023-05-23T20:40:22.436Z,6.07
2023-05-23T20:42:50.007Z,4.80
2023-05-23T20:45:16.822Z,5.57
2023-05-23T20:47:43.812Z,5.22
2023-05-23T20:50:11.808Z,6.07
2023-05-23T20:52:41.582Z,5.40
2023-05-23T20:55:09.081Z,6.20
2023-05-23T20:57:37.137Z,6.40
2023-05-23T21:00:13.626Z,5.38
2023-05-23T21:02:41.182Z,5.97
2023-05-23T21:05:08.794Z,5.90
2023-05-23T21:07:35.632Z,6.05
2023-05-23T21:10:02.886Z,5.30
2023-05-23T21:12:29.651Z,5.55
2023-05-23T21:14:59.300Z,5.93
2023-05-23T21:17:26.225Z,6.35
2023-05-23T21:19:52.976Z,6.18
2023-05-23T21:22:19.744Z,5.85
2023-05-23T21:24:46.537Z,5.50
2023-05-23T21:27:13.405Z,5.80
2023-05-23T21:29:40.770Z,5.93
2023-05-23T21:32:07.590Z,6.50
2023-05-23T21:34:34.340Z,5.72
2023-05-23T21:37:01.198Z,7.22
2023-05-23T21:39:36.285Z,7.28
2023-05-23T21:42:14.376Z,7.20
2023-05-23T21:44:41.278Z,7.93
2023-05-23T21:47:08.255Z,8.18
2023-05-23T21:49:35.693Z,8.25
2023-05-23T21:52:03.075Z,8.77
2023-05-23T21:54:29.864Z,8.05
2023-05-23T21:56:56.776Z,7.57
2023-05-23T21:59:23.727Z,7.63
2023-05-23T22:01:50.558Z,8.65
2023-05-23T22:04:20.470Z,7.70
2023-05-23T22:06:47.429Z,8.07
2023-05-23T22:09:15.542Z,10.15
2023-05-23T22:11:42.517Z,11.00
2023-05-23T22:14:09.604Z,22.33
2023-05-23T22:16:39.765Z,17.08
2023-05-23T22:19:07.201Z,12.15
2023-05-23T22:21:34.041Z,9.25
2023-05-23T22:24:01.194Z,10.10
2023-05-23T22:26:28.334Z,8.98
2023-05-23T22:28:55.476Z,8.18
2023-05-23T22:31:24.291Z,7.78
2023-05-23T22:33:51.461Z,8.23
2023-05-23T22:36:18.541Z,9.10
2023-05-23T22:38:45.831Z,8.50
